< < Back
Terminal Aerodrome Forecast


Current Version              Previous Versions:   1  2  3  4  5  6  7  8  9  

Terminal Aerodrome Forecast

449
FTUS42 KFFC 290933 AAB
TAFATL
TAF AMD
KATL 290933Z 2910/3012 31003KT P6SM SCT150 SCT250
     FM291500 32007KT P6SM SCT050 SCT250
     FM300000 27004KT P6SM SCT250=

Latest METAR

401
SAUS70 KWBC 291200 RRH
MTRATL
METAR KATL 291152Z 31004KT 10SM FEW150 SCT200 BKN250 24/20 A3001 RMK AO2
SLP151 70056 T02390200 10239 20217 53009


USA.gov is the U.S. government's official web portal to all federal, state and local government web resources and services.